createdAt,value
2019-05-02T00:01:43.034Z,11.67
2019-05-02T00:04:12.520Z,11.10
2019-05-02T00:06:37.967Z,12.00
2019-05-02T00:09:03.984Z,10.97
2019-05-02T00:11:28.719Z,11.00
2019-05-02T00:13:53.522Z,11.67
2019-05-02T00:16:18.852Z,10.67
2019-05-02T00:18:43.580Z,11.17
2019-05-02T00:21:09.098Z,12.90
2019-05-02T00:23:33.691Z,11.13
2019-05-02T00:25:58.197Z,9.83
2019-05-02T00:28:22.731Z,10.50
2019-05-02T00:30:47.261Z,11.83
2019-05-02T00:33:11.723Z,10.67
2019-05-02T00:35:36.183Z,9.73
2019-05-02T00:38:02.388Z,9.77
2019-05-02T00:40:27.766Z,10.63
2019-05-02T00:42:53.245Z,10.23
2019-05-02T00:45:23.431Z,10.17
2019-05-02T00:47:54.843Z,14.37
2019-05-02T00:50:19.685Z,10.57
2019-05-02T00:52:44.285Z,9.87
2019-05-02T00:55:08.994Z,10.40
2019-05-02T00:57:33.530Z,10.37
2019-05-02T00:59:58.104Z,13.93
2019-05-02T01:02:26.743Z,10.73
2019-05-02T01:04:51.302Z,9.70
2019-05-02T01:07:20.344Z,9.13
2019-05-02T01:09:46.768Z,9.90
2019-05-02T01:12:09.900Z,9.60
2019-05-02T01:14:34.590Z,9.23
2019-05-02T01:16:59.114Z,8.80
2019-05-02T01:19:23.657Z,8.60
2019-05-02T01:21:48.161Z,11.30
2019-05-02T01:24:12.628Z,9.53
2019-05-02T01:26:38.883Z,11.00
2019-05-02T01:29:17.021Z,9.63
2019-05-02T01:31:54.721Z,8.33
2019-05-02T01:34:19.724Z,10.10
2019-05-02T01:37:03.842Z,9.03
2019-05-02T01:39:28.492Z,10.03
2019-05-02T01:41:52.953Z,8.63
2019-05-02T01:44:17.426Z,9.53
2019-05-02T01:46:41.979Z,8.87
2019-05-02T01:49:06.887Z,9.63
2019-05-02T01:51:31.417Z,9.77
2019-05-02T01:53:55.950Z,9.17
2019-05-02T01:56:20.555Z,8.67
2019-05-02T01:58:45.018Z,8.70
2019-05-02T02:01:09.631Z,7.90
2019-05-02T02:03:34.248Z,8.63
2019-05-02T02:06:02.776Z,9.33
2019-05-02T02:08:27.240Z,9.03
2019-05-02T02:10:56.093Z,9.50
2019-05-02T02:13:17.484Z,8.70
2019-05-02T02:15:42.021Z,11.17
2019-05-02T02:18:06.622Z,8.57
2019-05-02T02:20:45.134Z,10.37
2019-05-02T02:23:25.833Z,10.10
2019-05-02T02:25:52.087Z,8.73
2019-05-02T02:28:16.533Z,7.70
2019-05-02T02:30:41.081Z,8.47
2019-05-02T02:33:07.446Z,7.83
2019-05-02T02:35:31.960Z,6.63
2019-05-02T02:37:56.439Z,8.50
2019-05-02T02:40:20.972Z,8.10
2019-05-02T02:42:45.532Z,10.57
2019-05-02T02:45:18.527Z,10.17
2019-05-02T02:47:39.626Z,8.47
2019-05-02T02:50:05.368Z,10.50
2019-05-02T02:52:30.155Z,9.27
2019-05-02T02:54:54.692Z,11.50
2019-05-02T02:57:25.843Z,9.63
2019-05-02T02:59:45.321Z,10.50
2019-05-02T03:02:12.045Z,10.10
2019-05-02T03:04:36.005Z,10.33
2019-05-02T03:07:00.605Z,10.00
2019-05-02T03:09:26.472Z,9.53
2019-05-02T03:12:09.469Z,10.80
2019-05-02T03:14:40.927Z,10.07
2019-05-02T03:17:02.127Z,9.83
2019-05-02T03:19:26.758Z,11.73
2019-05-02T03:22:00.312Z,9.33
2019-05-02T03:24:20.522Z,11.43
2019-05-02T03:26:48.751Z,11.87
2019-05-02T03:29:11.542Z,12.23
2019-05-02T03:31:37.163Z,13.80
2019-05-02T03:34:01.882Z,10.07
2019-05-02T03:36:30.421Z,11.83
2019-05-02T03:38:53.358Z,12.20
2019-05-02T03:41:20.897Z,15.50
2019-05-02T03:43:44.506Z,14.97
2019-05-02T03:46:13.760Z,16.90
2019-05-02T03:48:35.327Z,15.27
2019-05-02T03:50:59.942Z,17.40
2019-05-02T03:53:25.967Z,17.33
2019-05-02T03:55:50.854Z,16.53
2019-05-02T03:58:17.110Z,16.03
2019-05-02T04:00:41.884Z,17.60
2019-05-02T04:03:06.429Z,17.47
2019-05-02T04:05:33.771Z,18.77
2019-05-02T04:07:57.387Z,16.50
2019-05-02T04:10:44.504Z,18.03
2019-05-02T04:13:09.803Z,16.73
2019-05-02T04:15:37.526Z,17.07
2019-05-02T04:18:01.914Z,16.90
2019-05-02T04:20:26.690Z,16.23
2019-05-02T04:22:51.295Z,17.17
2019-05-02T04:25:15.764Z,17.50
2019-05-02T04:27:41.583Z,18.67
2019-05-02T04:30:11.178Z,15.13
2019-05-02T04:32:33.351Z,16.60
2019-05-02T04:34:58.145Z,16.40
2019-05-02T04:37:22.740Z,16.93
2019-05-02T04:39:49.161Z,17.50
2019-05-02T04:42:19.651Z,14.13
2019-05-02T04:44:47.884Z,16.33
2019-05-02T04:47:17.442Z,14.13
2019-05-02T04:49:35.633Z,17.20
2019-05-02T04:52:06.105Z,14.30
2019-05-02T04:54:31.313Z,17.63
2019-05-02T04:56:55.107Z,14.30
2019-05-02T04:59:21.864Z,15.67
2019-05-02T05:01:52.769Z,17.03
2019-05-02T05:04:09.300Z,18.30
2019-05-02T05:06:33.793Z,16.10
2019-05-02T05:08:58.594Z,17.23
2019-05-02T05:11:24.940Z,17.87
2019-05-02T05:13:52.426Z,19.40
2019-05-02T05:16:15.887Z,16.70
2019-05-02T05:18:44.015Z,20.37
2019-05-02T05:21:10.569Z,19.13
2019-05-02T05:23:35.758Z,21.97
2019-05-02T05:26:03.522Z,21.27
2019-05-02T05:28:27.278Z,19.27
2019-05-02T05:30:52.164Z,23.40
2019-05-02T05:33:18.336Z,19.77
2019-05-02T05:35:43.346Z,22.80
2019-05-02T05:38:09.254Z,21.77
2019-05-02T05:40:34.058Z,22.43
2019-05-02T05:43:02.139Z,19.13
2019-05-02T05:45:24.991Z,22.20
2019-05-02T05:47:52.309Z,23.73
2019-05-02T05:50:17.583Z,25.30
2019-05-02T05:52:42.576Z,22.27
2019-05-02T05:55:07.890Z,22.93
2019-05-02T05:57:32.472Z,23.10
2019-05-02T05:59:58.411Z,25.60
2019-05-02T06:02:23.144Z,24.23
2019-05-02T06:04:50.120Z,24.37
2019-05-02T06:07:13.828Z,23.23
2019-05-02T06:09:38.290Z,26.60
2019-05-02T06:12:02.756Z,24.50
2019-05-02T06:14:27.243Z,25.13
2019-05-02T06:16:53.187Z,27.30
2019-05-02T06:19:19.068Z,25.40
2019-05-02T06:21:45.085Z,26.07
2019-05-02T06:24:10.963Z,26.43
2019-05-02T06:26:35.785Z,27.10
2019-05-02T06:29:00.278Z,22.97
2019-05-02T06:31:24.810Z,26.93
2019-05-02T06:33:49.352Z,26.63
2019-05-02T06:36:13.893Z,26.00
2019-05-02T06:38:38.433Z,25.30
2019-05-02T06:41:03.030Z,29.20
2019-05-02T06:43:27.570Z,26.50
2019-05-02T06:45:52.033Z,26.07
2019-05-02T06:48:17.733Z,26.03
2019-05-02T06:50:42.702Z,27.60
2019-05-02T06:53:09.755Z,23.83
2019-05-02T06:55:36.504Z,28.83
2019-05-02T06:58:02.902Z,24.70
2019-05-02T07:00:35.581Z,24.80
2019-05-02T07:02:51.976Z,24.93
2019-05-02T07:05:16.445Z,28.20
2019-05-02T07:07:40.949Z,27.33
2019-05-02T07:10:07.650Z,27.60
2019-05-02T07:12:32.167Z,24.63
2019-05-02T07:15:01.523Z,25.30
2019-05-02T07:17:26.644Z,23.50
2019-05-02T07:19:52.501Z,24.83
2019-05-02T07:22:17.138Z,24.77
2019-05-02T07:24:41.681Z,25.47
2019-05-02T07:27:06.311Z,25.20
2019-05-02T07:29:30.784Z,21.40
2019-05-02T07:31:55.370Z,28.20
2019-05-02T07:34:19.861Z,26.37
2019-05-02T07:36:44.333Z,26.53
2019-05-02T07:39:10.819Z,23.63
2019-05-02T07:41:37.210Z,24.67
2019-05-02T07:44:04.335Z,25.83
2019-05-02T07:46:27.838Z,24.03
2019-05-02T07:48:54.677Z,26.07
2019-05-02T07:51:21.321Z,22.23
2019-05-02T07:53:48.539Z,22.17
2019-05-02T07:56:12.402Z,22.97
2019-05-02T07:58:38.515Z,21.73
2019-05-02T08:01:03.452Z,22.17
2019-05-02T08:03:33.579Z,22.50
2019-05-02T08:05:58.669Z,24.53
2019-05-02T08:08:25.105Z,24.23
2019-05-02T08:10:53.369Z,20.40
2019-05-02T08:13:17.467Z,23.30
2019-05-02T08:15:45.563Z,25.87
2019-05-02T08:18:08.311Z,22.33
2019-05-02T08:20:32.840Z,24.47
2019-05-02T08:22:57.315Z,25.23
2019-05-02T08:25:21.879Z,20.60
2019-05-02T08:27:47.980Z,22.03
2019-05-02T08:30:15.516Z,22.47
2019-05-02T08:32:40.123Z,21.00
2019-05-02T08:35:06.932Z,21.30
2019-05-02T08:37:35.265Z,23.53
2019-05-02T08:39:57.644Z,24.70
2019-05-02T08:42:22.109Z,25.47
2019-05-02T08:44:51.239Z,25.57
2019-05-02T08:47:19.159Z,23.10
2019-05-02T08:49:38.979Z,25.47
2019-05-02T08:52:03.597Z,22.67
2019-05-02T08:54:32.691Z,23.97
2019-05-02T08:56:59.161Z,23.27
2019-05-02T08:59:24.440Z,24.23
2019-05-02T09:01:49.500Z,25.00
2019-05-02T09:04:12.771Z,23.73
2019-05-02T09:06:37.254Z,23.43
2019-05-02T09:09:01.791Z,24.23
2019-05-02T09:11:26.325Z,25.10
2019-05-02T09:13:52.594Z,22.90
2019-05-02T09:16:23.650Z,24.20
2019-05-02T09:18:50.617Z,26.10
2019-05-02T09:21:09.636Z,24.10
2019-05-02T09:23:37.007Z,24.43
2019-05-02T09:26:02.429Z,25.20
2019-05-02T09:28:26.569Z,27.13
2019-05-02T09:30:52.417Z,25.43
2019-05-02T09:33:16.953Z,27.93
2019-05-02T09:35:42.189Z,25.33
2019-05-02T09:38:06.829Z,28.37
2019-05-02T09:40:31.927Z,24.53
2019-05-02T09:43:01.766Z,23.63
2019-05-02T09:45:27.919Z,26.63
2019-05-02T09:47:57.329Z,26.50
2019-05-02T09:50:20.619Z,30.10
2019-05-02T09:52:44.266Z,25.60
2019-05-02T09:55:11.998Z,23.07
2019-05-02T09:57:36.412Z,22.50
2019-05-02T10:00:02.162Z,23.33
2019-05-02T10:02:26.856Z,24.27
2019-05-02T10:04:52.372Z,27.87
2019-05-02T10:07:17.082Z,27.60
2019-05-02T10:09:42.440Z,25.30
2019-05-02T10:12:07.081Z,29.93
2019-05-02T10:14:33.109Z,31.77
2019-05-02T10:17:02.160Z,25.20
2019-05-02T10:19:25.995Z,25.27
2019-05-02T10:21:54.359Z,28.00
2019-05-02T10:24:16.565Z,27.73
2019-05-02T10:26:41.914Z,28.70
2019-05-02T10:29:06.606Z,29.27
2019-05-02T10:31:35.741Z,28.10
2019-05-02T10:33:57.383Z,27.63
2019-05-02T10:36:24.039Z,30.23
2019-05-02T10:38:49.076Z,34.53
2019-05-02T10:41:14.447Z,30.53
2019-05-02T10:43:38.902Z,29.67
2019-05-02T10:46:12.551Z,29.47
2019-05-02T10:48:38.787Z,30.90
2019-05-02T10:51:08.010Z,31.33
2019-05-02T10:53:32.573Z,31.87
2019-05-02T10:55:57.129Z,29.57
2019-05-02T10:58:26.189Z,27.70
2019-05-02T11:00:47.999Z,32.13
2019-05-02T11:03:22.408Z,33.87
2019-05-02T11:05:58.076Z,32.67
2019-05-02T11:08:22.456Z,29.80
2019-05-02T11:10:47.256Z,34.57
2019-05-02T11:13:16.051Z,33.53
2019-05-02T11:15:58.426Z,35.97
2019-05-02T11:18:39.433Z,33.73
2019-05-02T11:20:52.485Z,30.53
2019-05-02T11:23:17.078Z,29.80
2019-05-02T11:25:42.160Z,31.77
2019-05-02T11:28:07.305Z,31.80
2019-05-02T11:30:32.087Z,32.47
2019-05-02T11:32:56.564Z,33.13
2019-05-02T11:35:22.404Z,34.77
2019-05-02T11:37:47.119Z,31.27
2019-05-02T11:40:12.891Z,31.53
2019-05-02T11:42:37.569Z,31.17
2019-05-02T11:45:02.801Z,34.07
2019-05-02T11:47:27.332Z,26.27
2019-05-02T11:49:55.732Z,31.80
2019-05-02T11:52:18.044Z,27.83
2019-05-02T11:54:44.689Z,25.43
2019-05-02T11:57:08.766Z,26.00
2019-05-02T11:59:33.254Z,25.33
2019-05-02T12:02:09.469Z,26.87
2019-05-02T12:04:34.589Z,25.53
2019-05-02T12:07:01.560Z,26.40
2019-05-02T12:09:25.289Z,24.53
2019-05-02T12:11:52.760Z,26.70
2019-05-02T12:14:16.037Z,27.73
2019-05-02T12:16:40.633Z,24.47
2019-05-02T12:19:11.419Z,27.03
2019-05-02T12:21:32.466Z,25.23
2019-05-02T12:23:57.193Z,24.17
2019-05-02T12:26:22.167Z,25.07
2019-05-02T12:28:46.749Z,24.43
2019-05-02T12:31:16.705Z,24.17
2019-05-02T12:33:42.627Z,25.83
2019-05-02T12:36:11.889Z,23.77
2019-05-02T12:38:36.280Z,23.80
2019-05-02T12:41:02.570Z,29.20
2019-05-02T12:43:27.121Z,23.73
2019-05-02T12:45:52.790Z,25.00
2019-05-02T12:48:22.039Z,22.20
2019-05-02T12:50:46.610Z,26.87
2019-05-02T12:53:12.598Z,23.07
2019-05-02T12:55:37.342Z,22.53
2019-05-02T12:58:03.120Z,23.13
2019-05-02T13:00:27.713Z,23.53
2019-05-02T13:02:56.717Z,24.17
2019-05-02T13:05:22.249Z,24.40
2019-05-02T13:07:50.805Z,24.33
2019-05-02T13:10:15.388Z,23.00
2019-05-02T13:12:41.914Z,23.13
2019-05-02T13:15:07.850Z,27.70
2019-05-02T13:17:35.708Z,26.30
2019-05-02T13:20:03.133Z,24.27
2019-05-02T13:22:29.544Z,22.83
2019-05-02T13:24:56.383Z,25.20
2019-05-02T13:27:22.792Z,25.53
2019-05-02T13:29:48.417Z,29.17
2019-05-02T13:32:21.759Z,25.73
2019-05-02T13:34:57.300Z,25.27
2019-05-02T13:37:22.907Z,26.77
2019-05-02T13:40:05.347Z,29.83
2019-05-02T13:42:29.960Z,27.30
2019-05-02T13:44:56.217Z,27.53
2019-05-02T13:47:25.256Z,26.40
2019-05-02T13:49:54.090Z,29.43
2019-05-02T13:52:16.145Z,26.77
2019-05-02T13:54:42.575Z,27.87
2019-05-02T13:57:07.719Z,28.23
2019-05-02T13:59:33.746Z,26.97
2019-05-02T14:02:02.775Z,29.83
2019-05-02T14:04:27.416Z,30.03
2019-05-02T14:06:52.853Z,28.03
2019-05-02T14:09:22.538Z,28.53
2019-05-02T14:12:07.198Z,28.87
2019-05-02T14:14:32.629Z,30.87
2019-05-02T14:16:57.200Z,29.20
2019-05-02T14:19:22.261Z,26.97
2019-05-02T14:21:47.000Z,31.87
2019-05-02T14:24:11.910Z,26.60
2019-05-02T14:26:36.469Z,28.87
2019-05-02T14:29:02.558Z,30.80
2019-05-02T14:31:27.182Z,29.83
2019-05-02T14:34:09.663Z,34.37
2019-05-02T14:36:34.145Z,34.10
2019-05-02T14:38:58.612Z,37.27
2019-05-02T14:41:24.841Z,34.97
2019-05-02T14:43:53.220Z,33.13
2019-05-02T14:46:17.983Z,33.53
2019-05-02T14:48:45.291Z,39.30
2019-05-02T14:51:11.874Z,34.27
2019-05-02T14:53:36.967Z,36.03
2019-05-02T14:56:06.145Z,36.23
2019-05-02T14:58:29.472Z,33.30
2019-05-02T15:00:55.843Z,33.17
2019-05-02T15:03:24.520Z,32.93
2019-05-02T15:05:46.506Z,39.00
2019-05-02T15:08:11.857Z,36.87
2019-05-02T15:10:49.391Z,38.33
2019-05-02T15:13:03.913Z,39.53
2019-05-02T15:15:33.983Z,40.47
2019-05-02T15:17:54.772Z,41.97
2019-05-02T15:20:19.415Z,39.03
2019-05-02T15:22:43.958Z,36.93
2019-05-02T15:25:13.645Z,36.30
2019-05-02T15:27:41.845Z,36.93
2019-05-02T15:30:06.916Z,37.17
2019-05-02T15:32:46.396Z,36.17
2019-05-02T15:35:23.111Z,35.37
2019-05-02T15:37:44.294Z,34.50
2019-05-02T15:42:37.468Z,32.47
2019-05-02T15:45:05.640Z,36.70
2019-05-02T15:47:28.358Z,36.30
2019-05-02T15:49:52.947Z,35.00
2019-05-02T15:52:24.250Z,34.77
2019-05-02T15:54:45.789Z,34.87
2019-05-02T15:57:10.266Z,33.93
2019-05-02T15:59:42.433Z,31.23
2019-05-02T16:02:03.096Z,36.93
2019-05-02T16:04:29.233Z,35.07
2019-05-02T16:06:53.795Z,30.00
2019-05-02T16:09:18.275Z,31.80
2019-05-02T16:11:43.454Z,31.37
2019-05-02T16:14:07.983Z,31.10
2019-05-02T16:16:36.622Z,31.67
2019-05-02T16:18:58.686Z,31.60
2019-05-02T16:21:30.128Z,32.63
2019-05-02T16:24:14.785Z,31.57
2019-05-02T16:26:42.760Z,30.20
2019-05-02T16:29:05.134Z,27.67
2019-05-02T16:31:31.618Z,31.33
2019-05-02T16:33:57.476Z,29.13
2019-05-02T16:36:26.011Z,27.40
2019-05-02T16:38:48.400Z,28.13
2019-05-02T16:41:12.938Z,27.07
2019-05-02T16:43:37.420Z,31.23
2019-05-02T16:46:02.000Z,25.57
2019-05-02T16:48:30.564Z,25.60
2019-05-02T16:50:52.690Z,27.13
2019-05-02T16:53:21.877Z,29.70
2019-05-02T16:55:43.716Z,25.60
2019-05-02T16:58:08.182Z,27.27
2019-05-02T17:00:36.873Z,24.13
2019-05-02T17:02:58.960Z,24.63
2019-05-02T17:05:23.583Z,26.40
2019-05-02T17:07:53.010Z,20.43
2019-05-02T17:10:19.383Z,23.10
2019-05-02T17:12:47.323Z,23.33
2019-05-02T17:15:31.425Z,21.40
2019-05-02T17:17:54.500Z,21.93
2019-05-02T17:20:19.089Z,22.40
2019-05-02T17:22:44.488Z,25.93
2019-05-02T17:25:10.144Z,22.50
2019-05-02T17:27:34.762Z,20.50
2019-05-02T17:30:00.688Z,22.70
2019-05-02T17:32:28.837Z,20.83
2019-05-02T17:34:52.606Z,24.07
2019-05-02T17:37:17.134Z,23.63
2019-05-02T17:39:42.759Z,24.53
2019-05-02T17:42:07.842Z,21.27
2019-05-02T17:44:32.320Z,21.50
2019-05-02T17:46:58.121Z,24.47
2019-05-02T17:49:30.435Z,24.23
2019-05-02T17:52:11.225Z,25.57
2019-05-02T17:54:33.481Z,25.57
2019-05-02T17:56:59.177Z,27.87
2019-05-02T17:59:28.216Z,24.57
2019-05-02T18:01:50.035Z,26.47
2019-05-02T18:04:16.459Z,21.93
2019-05-02T18:06:41.718Z,25.63
2019-05-02T18:09:07.374Z,21.67
2019-05-02T18:11:36.428Z,24.13
2019-05-02T18:13:58.256Z,23.70
2019-05-02T18:16:22.744Z,23.43
2019-05-02T18:18:47.292Z,27.57
2019-05-02T18:21:12.762Z,24.60
2019-05-02T18:23:37.466Z,19.80
2019-05-02T18:26:05.020Z,15.27
2019-05-02T18:28:28.226Z,11.30
2019-05-02T18:30:57.047Z,13.50
2019-05-02T18:33:18.870Z,11.60
2019-05-02T18:35:46.898Z,13.10
2019-05-02T18:38:09.713Z,10.87
2019-05-02T18:40:34.404Z,10.43
2019-05-02T18:43:02.194Z,9.93
2019-05-02T18:45:28.480Z,11.50
2019-05-02T18:47:53.970Z,9.67
2019-05-02T18:50:31.969Z,11.03
2019-05-02T18:52:56.775Z,10.03
2019-05-02T18:55:23.162Z,9.87
2019-05-02T18:57:47.536Z,11.10
2019-05-02T19:00:12.368Z,10.93
2019-05-02T19:02:36.903Z,10.17
2019-05-02T19:05:01.998Z,12.53
2019-05-02T19:07:33.069Z,10.23
2019-05-02T19:09:53.970Z,11.40
2019-05-02T19:12:22.259Z,10.93
2019-05-02T19:14:44.923Z,12.90
2019-05-02T19:17:09.399Z,12.40
2019-05-02T19:19:36.832Z,14.63
2019-05-02T19:22:00.122Z,12.67
2019-05-02T19:24:27.524Z,13.07
2019-05-02T19:26:53.264Z,15.70
2019-05-02T19:29:24.934Z,13.47
2019-05-02T19:31:49.484Z,12.93
2019-05-02T19:34:16.970Z,14.43
2019-05-02T19:36:41.683Z,11.07
2019-05-02T19:39:09.929Z,10.30
2019-05-02T19:41:39.031Z,11.10
2019-05-02T19:44:02.308Z,8.47
2019-05-02T19:46:34.516Z,8.53
2019-05-02T19:48:53.419Z,6.60
2019-05-02T19:51:18.863Z,7.40
2019-05-02T19:53:44.193Z,4.10
2019-05-02T19:56:08.811Z,3.87
2019-05-02T19:58:36.877Z,5.90
2019-05-02T20:01:02.054Z,3.67
2019-05-02T20:03:26.345Z,2.73
2019-05-02T20:05:51.890Z,3.60
2019-05-02T20:08:21.486Z,4.23
2019-05-02T20:10:42.831Z,2.87
2019-05-02T20:13:07.437Z,2.57
2019-05-02T20:15:33.633Z,4.03
2019-05-02T20:18:00.526Z,5.63
2019-05-02T20:20:43.565Z,4.93
2019-05-02T20:23:15.520Z,6.53
2019-05-02T20:25:38.958Z,3.43
2019-05-02T20:28:01.983Z,3.70
2019-05-02T20:30:26.495Z,4.43
2019-05-02T20:32:51.801Z,3.20
2019-05-02T20:35:16.408Z,3.27
2019-05-02T20:37:41.966Z,5.17
2019-05-02T20:40:07.370Z,2.90
2019-05-02T20:42:32.233Z,4.80
2019-05-02T20:44:56.844Z,4.13
2019-05-02T20:47:23.818Z,3.57
2019-05-02T20:49:48.447Z,5.27
2019-05-02T20:52:13.098Z,7.23
2019-05-02T20:54:37.658Z,4.60
2019-05-02T20:57:02.570Z,3.87
2019-05-02T20:59:27.288Z,3.60
2019-05-02T21:01:52.376Z,3.80
2019-05-02T21:04:17.029Z,6.97
2019-05-02T21:06:44.078Z,5.77
2019-05-02T21:09:11.497Z,4.57
2019-05-02T21:11:36.234Z,4.47
2019-05-02T21:14:01.670Z,5.47
2019-05-02T21:16:26.464Z,4.37
2019-05-02T21:18:50.942Z,3.87
2019-05-02T21:21:15.527Z,3.70
2019-05-02T21:23:44.829Z,4.40
2019-05-02T21:26:06.343Z,4.47
2019-05-02T21:28:32.165Z,6.07
2019-05-02T21:30:56.822Z,3.73
2019-05-02T21:33:36.665Z,5.00
2019-05-02T21:36:01.847Z,4.93
2019-05-02T21:38:26.324Z,3.77
2019-05-02T21:40:52.557Z,5.07
2019-05-02T21:43:17.251Z,3.73
2019-05-02T21:45:42.166Z,5.77
2019-05-02T21:48:06.701Z,5.13
2019-05-02T21:50:32.854Z,6.87
2019-05-02T21:53:15.501Z,5.67
2019-05-02T21:55:44.479Z,4.80
2019-05-02T21:58:09.096Z,7.97
2019-05-02T22:00:35.392Z,6.83
2019-05-02T22:03:01.545Z,5.40
2019-05-02T22:05:26.059Z,4.83
2019-05-02T22:07:52.295Z,8.27
2019-05-02T22:10:16.931Z,6.07
2019-05-02T22:12:42.222Z,6.43
2019-05-02T22:15:07.201Z,7.03
2019-05-02T22:17:32.216Z,5.57
2019-05-02T22:19:56.959Z,8.03
2019-05-02T22:22:22.829Z,8.03
2019-05-02T22:24:47.676Z,5.87
2019-05-02T22:27:12.485Z,9.03
2019-05-02T22:29:36.996Z,6.17
2019-05-02T22:32:02.962Z,7.07
2019-05-02T22:34:27.825Z,4.67
2019-05-02T22:36:54.299Z,9.07
2019-05-02T22:39:23.185Z,13.23
2019-05-02T22:41:47.652Z,5.93
2019-05-02T22:44:12.537Z,6.63
2019-05-02T22:46:43.207Z,7.93
2019-05-02T22:49:07.449Z,6.83
2019-05-02T22:51:32.091Z,6.20
2019-05-02T22:53:56.571Z,7.80
2019-05-02T22:56:22.243Z,7.90
2019-05-02T22:58:46.706Z,5.73
2019-05-02T23:01:11.271Z,8.53
2019-05-02T23:03:35.841Z,5.83
2019-05-02T23:06:01.775Z,7.43
2019-05-02T23:08:26.339Z,7.63
2019-05-02T23:10:51.950Z,8.80
2019-05-02T23:13:16.646Z,5.70
2019-05-02T23:15:42.692Z,6.17
2019-05-02T23:18:07.319Z,7.87
2019-05-02T23:20:32.939Z,7.33
2019-05-02T23:22:57.806Z,7.87
2019-05-02T23:25:23.904Z,9.83
2019-05-02T23:27:56.075Z,8.97
2019-05-02T23:30:22.607Z,6.00
2019-05-02T23:32:47.151Z,6.50
2019-05-02T23:35:11.777Z,4.53
2019-05-02T23:37:36.351Z,7.23
2019-05-02T23:40:02.014Z,3.10
2019-05-02T23:42:26.580Z,7.47
2019-05-02T23:44:51.929Z,4.57
2019-05-02T23:47:16.552Z,3.43
2019-05-02T23:49:42.713Z,5.63
2019-05-02T23:52:07.382Z,8.33
2019-05-02T23:54:32.496Z,4.70
2019-05-02T23:56:57.644Z,5.20
2019-05-02T23:59:22.471Z,4.93
